| time (UTC) | temp F | wind direction | speed MPH | gust MPH | rain 1hr in | rain 24hr in | rain mn in | humidity % | barometer mb |
| 20260504200025 | 71 | 234 | 3.0 | 14.0 | 0.00 | 0.00 | 0.00 | 50 | 1015.9 |
| 20260504194510 | 71 | 304 | 2.0 | 11.0 | 0.00 | 0.00 | 0.00 | 53 | 1016.2 |
| 20260504193017 | 70 | 312 | 4.0 | 8.0 | 0.00 | 0.00 | 0.00 | 48 | 1016.4 |
| 20260504191518 | 70 | 273 | 5.0 | 10.0 | 0.00 | 0.00 | 0.00 | 48 | 1016.8 |
| 20260504190025 | 70 | 235 | 5.0 | 11.0 | 0.00 | 0.00 | 0.00 | 48 | 1017.0 |
| 20260504184528 | 70 | 335 | 4.0 | 8.0 | 0.00 | 0.00 | 0.00 | 54 | 1017.1 |
| 20260504183014 | 69 | 205 | 3.0 | 10.0 | 0.00 | 0.00 | 0.00 | 50 | 1017.1 |
| 20260504181511 | 67 | 258 | 5.0 | 10.0 | 0.00 | 0.00 | 0.00 | 52 | 1017.4 |
| 20260504180024 | 66 | 254 | 5.0 | 10.0 | 0.00 | 0.00 | 0.00 | 51 | 1017.5 |
| 20260504174507 | 65 | 252 | 3.0 | 8.0 | 0.00 | 0.00 | 0.00 | 54 | 1017.6 |
| 20260504173028 | 64 | 192 | 4.0 | 10.0 | 0.00 | 0.00 | 0.00 | 56 | 1017.8 |
| 20260504171516 | 63 | 255 | 3.0 | 8.0 | 0.00 | 0.00 | 0.00 | 54 | 1018.0 |
| 20260504081504 | 42 | 346 | 0.0 | 2.0 | 0.00 | 0.00 | 0.00 | 76 | 1018.8 |
| 20260504050009 | 44 | 349 | 0.0 | 2.0 | 0.00 | 0.00 | 0.00 | 71 | 1018.9 |
| 20260504044514 | 44 | 349 | 0.0 | 2.0 | 0.00 | 0.00 | 0.00 | 70 | 1018.9 |
| 20260504043021 | 45 | 349 | 0.0 | 2.0 | 0.00 | 0.00 | 0.00 | 68 | 1018.8 |
| 20260504041510 | 45 | 349 | 0.0 | 1.0 | 0.00 | 0.00 | 0.00 | 68 | 1018.9 |
| 20260504040014 | 45 | 349 | 0.0 | 2.0 | 0.00 | 0.00 | 0.00 | 67 | 1018.8 |
| 20260504034516 | 46 | 349 | 0.0 | 0.0 | 0.00 | 0.00 | 0.00 | 67 | 1019.0 |
| 20260504033012 | 46 | 349 | 0.0 | 2.0 | 0.00 | 0.00 | 0.00 | 68 | 1018.8 |
| 20260504031512 | 46 | 349 | 0.0 | 2.0 | 0.00 | 0.00 | 0.00 | 69 | 1018.8 |
| 20260504030012 | 46 | 349 | 0.0 | 2.0 | 0.00 | 0.00 | 0.00 | 65 | 1018.7 |
| 20260504024512 | 47 | 349 | 0.0 | 2.0 | 0.00 | 0.00 | 0.00 | 64 | 1018.8 |
| 20260504023018 | 47 | 349 | 0.0 | 2.0 | 0.00 | 0.00 | 0.00 | 67 | 1018.8 |
| 20260504021515 | 47 | 349 | 0.0 | 2.0 | 0.00 | 0.00 | 0.00 | 64 | 1018.7 |
| 20260504020021 | 47 | 349 | 0.0 | 2.0 | 0.00 | 0.00 | 0.00 | 62 | 1018.8 |
| 20260504014513 | 48 | 349 | 0.0 | 2.0 | 0.00 | 0.00 | 0.00 | 62 | 1018.5 |
| 20260504013016 | 48 | 349 | 0.0 | 2.0 | 0.00 | 0.00 | 0.00 | 64 | 1018.7 |
| 20260504011518 | 49 | 345 | 0.0 | 2.0 | 0.00 | 0.00 | 0.00 | 61 | 1018.7 |
| 20260504010018 | 50 | 342 | 0.0 | 2.0 | 0.00 | 0.00 | 0.00 | 58 | 1018.6 |
| 20260504004518 | 52 | 178 | 0.0 | 2.0 | 0.00 | 0.00 | 0.00 | 53 | 1018.4 |
| 20260504003017 | 54 | 174 | 0.0 | 2.0 | 0.00 | 0.00 | 0.00 | 48 | 1018.0 |
| 20260504001519 | 56 | 177 | 0.0 | 2.0 | 0.00 | 0.00 | 0.00 | 44 | 1017.9 |
| 20260504000004 | 57 | 317 | 1.0 | 3.0 | 0.00 | 0.00 | 0.00 | 41 | 1018.1 |
| 20260503234510 | 58 | 290 | 1.0 | 5.0 | 0.00 | 0.00 | 0.00 | 38 | 1018.0 |
| 20260503233015 | 60 | 170 | 2.0 | 6.0 | 0.00 | 0.00 | 0.00 | 36 | 1018.1 |
| 20260503231521 | 60 | 223 | 2.0 | 6.0 | 0.00 | 0.00 | 0.00 | 34 | 1018.2 |
| 20260503230004 | 60 | 221 | 2.0 | 8.0 | 0.00 | 0.00 | 0.00 | 37 | 1018.2 |
| 20260503224508 | 61 | 247 | 2.0 | 6.0 | 0.00 | 0.00 | 0.00 | 35 | 1018.2 |
| 20260503223012 | 61 | 209 | 3.0 | 7.0 | 0.00 | 0.00 | 0.00 | 35 | 1018.4 |
| 20260503221516 | 61 | 287 | 4.0 | 10.0 | 0.00 | 0.00 | 0.00 | 35 | 1018.6 |
| 20260503220024 | 61 | 233 | 2.0 | 13.0 | 0.00 | 0.00 | 0.00 | 37 | 1018.5 |
| 20260503214507 | 61 | 188 | 2.0 | 11.0 | 0.00 | 0.00 | 0.00 | 40 | 1018.7 |
| 20260503213010 | 61 | 257 | 4.0 | 9.0 | 0.00 | 0.00 | 0.00 | 39 | 1018.8 |
| 20260503211520 | 60 | 241 | 4.0 | 11.0 | 0.00 | 0.00 | 0.00 | 38 | 1018.9 |
| 20260503210018 | 60 | 236 | 2.0 | 10.0 | 0.00 | 0.00 | 0.00 | 36 | 1019.1 |
| 20260503204524 | 61 | 169 | 2.0 | 8.0 | 0.00 | 0.00 | 0.00 | 37 | 1019.2 |
| 20260503203009 | 60 | 269 | 0.0 | 9.0 | 0.00 | 0.00 | 0.00 | 40 | 1019.5 |
| 20260503201513 | 60 | 190 | 5.0 | 9.0 | 0.00 | 0.00 | 0.00 | 38 | 1019.7 |